createdAt,value
2018-03-23T00:00:09.556Z,4.39
2018-03-23T00:01:19.540Z,4.42
2018-03-23T00:02:29.516Z,4.36
2018-03-23T00:03:39.494Z,4.42
2018-03-23T00:04:48.942Z,4.31
2018-03-23T00:05:58.654Z,4.32
2018-03-23T00:07:08.110Z,4.28
2018-03-23T00:08:18.090Z,4.36
2018-03-23T00:09:27.525Z,4.46
2018-03-23T00:10:36.968Z,4.36
2018-03-23T00:11:46.935Z,4.39
2018-03-23T00:12:56.918Z,4.34
2018-03-23T00:14:06.619Z,4.34
2018-03-23T00:15:16.318Z,4.4
2018-03-23T00:16:26.014Z,4.27
2018-03-23T00:17:35.970Z,4.31
2018-03-23T00:18:45.938Z,4.38
2018-03-23T00:19:55.906Z,4.32
2018-03-23T00:21:05.365Z,4.36
2018-03-23T00:22:15.075Z,4.28
2018-03-23T00:23:24.786Z,4.4
2018-03-23T00:24:34.812Z,4.32
2018-03-23T00:25:44.251Z,4.36
2018-03-23T00:26:53.953Z,4.45
2018-03-23T00:28:03.921Z,4.36
2018-03-23T00:29:13.625Z,4.36
2018-03-23T00:30:23.596Z,4.36
2018-03-23T00:31:33.305Z,4.38
2018-03-23T00:32:43.282Z,4.36
2018-03-23T00:33:52.987Z,4.31
2018-03-23T00:35:03.024Z,4.42
2018-03-23T00:36:12.759Z,4.4
2018-03-23T00:37:22.733Z,4.39
2018-03-23T00:38:32.696Z,4.4
2018-03-23T00:39:42.151Z,4.39
2018-03-23T00:40:52.109Z,4.39
2018-03-23T00:42:01.554Z,4.4
2018-03-23T00:43:11.262Z,4.36
2018-03-23T00:44:20.972Z,4.43
2018-03-23T00:45:30.676Z,4.42
2018-03-23T00:46:40.370Z,4.36
2018-03-23T00:47:50.337Z,4.32
2018-03-23T00:49:00.035Z,4.36
2018-03-23T00:50:10.000Z,4.32
2018-03-23T00:51:19.715Z,4.32
2018-03-23T00:52:29.433Z,4.4
2018-03-23T00:53:39.141Z,4.31
2018-03-23T00:54:48.573Z,4.31
2018-03-23T00:55:57.755Z,4.32
2018-03-23T00:57:07.195Z,4.3
2018-03-23T00:58:17.154Z,4.4
2018-03-23T00:59:26.601Z,4.28
2018-03-23T01:00:35.835Z,4.31
2018-03-23T01:01:45.562Z,4.32
2018-03-23T01:02:54.996Z,4.43
2018-03-23T01:04:04.957Z,4.32
2018-03-23T01:05:14.392Z,4.45
2018-03-23T01:06:24.103Z,4.36
2018-03-23T01:07:33.627Z,4.38
2018-03-23T01:08:43.592Z,4.31
2018-03-23T01:09:53.547Z,4.22
2018-03-23T01:11:03.261Z,4.39
2018-03-23T01:12:12.454Z,4.3
2018-03-23T01:13:22.156Z,4.24
2018-03-23T01:14:31.902Z,4.21
2018-03-23T01:15:41.723Z,4.13
2018-03-23T01:16:51.173Z,4.03
2018-03-23T01:18:00.880Z,3.99
2018-03-23T01:19:10.338Z,3.89
2018-03-23T01:20:20.044Z,3.91
2018-03-23T01:21:29.742Z,3.89
2018-03-23T01:22:39.702Z,3.89
2018-03-23T01:23:49.406Z,3.78
2018-03-23T01:24:58.329Z,3.91
2018-03-23T01:26:08.284Z,3.71
2018-03-23T01:27:17.989Z,3.7
2018-03-23T01:28:27.949Z,3.64
2018-03-23T01:29:37.912Z,3.49
2018-03-23T01:30:47.913Z,3.5
2018-03-23T01:31:57.876Z,3.49
2018-03-23T01:33:07.316Z,3.48
2018-03-23T01:34:17.017Z,3.48
2018-03-23T01:35:27.001Z,3.52
2018-03-23T01:36:37.094Z,3.43
2018-03-23T01:37:47.067Z,3.48
2018-03-23T01:38:56.763Z,3.41
2018-03-23T01:40:06.472Z,3.29
2018-03-23T01:41:16.444Z,3.29
2018-03-23T01:42:25.619Z,3.31
2018-03-23T01:43:34.799Z,3.21
2018-03-23T01:44:44.502Z,3.21
2018-03-23T01:45:54.465Z,3.21
2018-03-23T01:47:04.159Z,3.19
2018-03-23T01:48:14.120Z,3.21
2018-03-23T01:49:23.549Z,3.22
2018-03-23T01:50:33.267Z,3.16
2018-03-23T01:51:42.972Z,3.16
2018-03-23T01:52:52.942Z,3.21
2018-03-23T01:54:02.387Z,3.19
2018-03-23T01:55:12.089Z,3.11
2018-03-23T01:56:21.788Z,3.09
2018-03-23T01:57:31.528Z,3.06
2018-03-23T01:58:41.226Z,3.12
2018-03-23T01:59:50.919Z,3.09
2018-03-23T02:01:00.883Z,3.09
2018-03-23T02:02:10.585Z,3.11
2018-03-23T02:03:20.631Z,3.08
2018-03-23T02:04:30.609Z,3.08
2018-03-23T02:05:40.311Z,2.98
2018-03-23T02:06:50.024Z,2.94
2018-03-23T02:07:59.210Z,2.93
2018-03-23T02:09:08.645Z,2.93
2018-03-23T02:10:18.607Z,2.98
2018-03-23T02:11:28.106Z,2.91
2018-03-23T02:12:37.795Z,2.91
2018-03-23T02:13:46.982Z,2.93
2018-03-23T02:14:56.940Z,2.94
2018-03-23T02:16:06.905Z,3.03
2018-03-23T02:17:16.614Z,2.93
2018-03-23T02:18:26.574Z,2.98
2018-03-23T02:19:36.535Z,2.94
2018-03-23T02:20:46.246Z,2.95
2018-03-23T02:21:55.739Z,3.01
2018-03-23T02:23:05.191Z,3
2018-03-23T02:24:14.640Z,2.97
2018-03-23T02:25:24.603Z,2.85
2018-03-23T02:26:34.308Z,2.83
2018-03-23T02:27:44.017Z,2.85
2018-03-23T02:28:53.723Z,2.85
2018-03-23T02:30:03.426Z,2.9
2018-03-23T02:31:12.894Z,2.85
2018-03-23T02:32:22.865Z,2.9
2018-03-23T02:33:32.322Z,2.91
2018-03-23T02:34:42.025Z,2.97
2018-03-23T02:35:51.985Z,2.9
2018-03-23T02:37:01.701Z,2.87
2018-03-23T02:38:11.408Z,2.83
2018-03-23T02:39:20.850Z,2.83
2018-03-23T02:40:30.861Z,2.82
2018-03-23T02:41:40.570Z,2.77
2018-03-23T02:42:50.533Z,2.82
2018-03-23T02:44:00.244Z,2.76
2018-03-23T02:45:10.212Z,2.73
2018-03-23T02:46:19.660Z,2.75
2018-03-23T02:47:29.367Z,2.76
2018-03-23T02:48:39.095Z,2.82
2018-03-23T02:49:48.817Z,2.8
2018-03-23T02:50:58.516Z,2.82
2018-03-23T02:52:08.231Z,2.85
2018-03-23T02:53:17.962Z,2.83
2018-03-23T02:54:27.972Z,2.82
2018-03-23T02:55:37.679Z,2.79
2018-03-23T02:56:47.416Z,2.75
2018-03-23T02:57:57.130Z,2.76
2018-03-23T02:59:07.089Z,2.76
2018-03-23T03:00:16.812Z,2.73
2018-03-23T03:01:26.778Z,2.7
2018-03-23T03:02:36.756Z,2.75
2018-03-23T03:03:46.724Z,2.79
2018-03-23T03:04:56.449Z,2.72
2018-03-23T03:06:06.181Z,2.76
2018-03-23T03:07:15.894Z,2.72
2018-03-23T03:08:25.856Z,2.65
2018-03-23T03:09:35.866Z,2.68
2018-03-23T03:10:45.571Z,2.68
2018-03-23T03:11:55.534Z,2.68
2018-03-23T03:13:05.495Z,2.7
2018-03-23T03:14:15.205Z,2.68
2018-03-23T03:15:25.180Z,2.7
2018-03-23T03:16:35.159Z,2.69
2018-03-23T03:17:44.868Z,2.68
2018-03-23T03:18:54.829Z,2.68
2018-03-23T03:20:04.796Z,2.57
2018-03-23T03:21:14.749Z,2.64
2018-03-23T03:22:24.474Z,2.58
2018-03-23T03:23:34.187Z,2.58
2018-03-23T03:24:44.149Z,2.64
2018-03-23T03:25:53.858Z,2.59
2018-03-23T03:27:03.563Z,2.64
2018-03-23T03:28:13.267Z,2.75
2018-03-23T03:29:23.224Z,2.7
2018-03-23T03:30:32.670Z,2.61
2018-03-23T03:31:42.635Z,2.58
2018-03-23T03:32:52.601Z,2.7
2018-03-23T03:34:02.561Z,2.55
2018-03-23T03:35:12.049Z,2.7
2018-03-23T03:36:22.014Z,2.68
2018-03-23T03:37:31.445Z,2.69
2018-03-23T03:38:41.151Z,2.79
2018-03-23T03:39:50.591Z,2.75
2018-03-23T03:40:59.767Z,2.69
2018-03-23T03:42:09.737Z,2.73
2018-03-23T03:43:19.442Z,2.72
2018-03-23T03:44:29.147Z,2.75
2018-03-23T03:45:38.847Z,2.77
2018-03-23T03:46:48.548Z,2.82
2018-03-23T03:47:58.248Z,2.72
2018-03-23T03:49:07.951Z,2.79
2018-03-23T03:50:17.647Z,2.7
2018-03-23T03:51:27.608Z,2.82
2018-03-23T03:52:37.584Z,2.8
2018-03-23T03:53:47.552Z,2.83
2018-03-23T03:54:57.527Z,2.9
2018-03-23T03:56:07.233Z,2.91
2018-03-23T03:57:17.196Z,2.87
2018-03-23T03:58:27.150Z,2.9
2018-03-23T03:59:36.601Z,2.91
2018-03-23T04:00:46.306Z,2.88
2018-03-23T04:01:56.005Z,2.87
2018-03-23T04:03:05.715Z,2.8
2018-03-23T04:04:15.419Z,2.83
2018-03-23T04:05:25.402Z,2.88
2018-03-23T04:06:35.374Z,2.82
2018-03-23T04:07:45.350Z,2.83
2018-03-23T04:08:55.312Z,2.8
2018-03-23T04:10:05.273Z,2.77
2018-03-23T04:11:14.978Z,2.85
2018-03-23T04:12:24.684Z,2.85
2018-03-23T04:13:34.643Z,2.82
2018-03-23T04:14:44.600Z,2.85
2018-03-23T04:15:54.552Z,2.85
2018-03-23T04:17:04.593Z,2.94
2018-03-23T04:18:14.290Z,2.88
2018-03-23T04:19:24.243Z,2.77
2018-03-23T04:20:33.937Z,2.85
2018-03-23T04:21:43.897Z,2.85
2018-03-23T04:22:53.340Z,2.82
2018-03-23T04:24:02.790Z,2.82
2018-03-23T04:25:12.763Z,2.79
2018-03-23T04:26:21.941Z,2.82
2018-03-23T04:27:31.649Z,2.82
2018-03-23T04:28:41.091Z,2.8
2018-03-23T04:29:50.791Z,2.83
2018-03-23T04:31:00.493Z,2.85
2018-03-23T04:32:10.201Z,2.87
2018-03-23T04:33:19.915Z,2.85
2018-03-23T04:34:29.356Z,2.85
2018-03-23T04:35:39.309Z,2.97
2018-03-23T04:36:48.247Z,2.98
2018-03-23T04:37:57.676Z,2.93
2018-03-23T04:39:07.111Z,2.88
2018-03-23T04:40:16.296Z,2.98
2018-03-23T04:41:25.475Z,2.93
2018-03-23T04:42:34.907Z,2.93
2018-03-23T04:43:44.604Z,3.05
2018-03-23T04:44:54.294Z,2.97
2018-03-23T04:46:03.735Z,3.03
2018-03-23T04:47:13.764Z,3
2018-03-23T04:48:23.727Z,3.03
2018-03-23T04:49:33.167Z,3.01
2018-03-23T04:50:43.125Z,3.09
2018-03-23T04:51:52.822Z,3.08
2018-03-23T04:53:02.786Z,3.01
2018-03-23T04:54:12.493Z,2.98
2018-03-23T04:55:22.198Z,2.97
2018-03-23T04:56:32.163Z,3.01
2018-03-23T04:57:41.618Z,2.9
2018-03-23T04:58:51.343Z,2.95
2018-03-23T05:00:01.304Z,2.94
2018-03-23T05:01:11.006Z,2.95
2018-03-23T05:02:20.697Z,2.95
2018-03-23T05:03:30.392Z,2.93
2018-03-23T05:04:40.094Z,2.93
2018-03-23T05:05:49.530Z,2.9
2018-03-23T05:06:59.258Z,2.9
2018-03-23T05:08:09.284Z,2.91
2018-03-23T05:09:18.721Z,2.87
2018-03-23T05:10:28.415Z,2.88
2018-03-23T05:11:37.608Z,2.9
2018-03-23T05:12:47.310Z,2.9
2018-03-23T05:13:57.028Z,2.87
2018-03-23T05:15:06.228Z,2.9
2018-03-23T05:16:15.671Z,2.85
2018-03-23T05:17:25.368Z,2.82
2018-03-23T05:18:35.322Z,2.87
2018-03-23T05:19:45.032Z,2.82
2018-03-23T05:20:54.736Z,2.8
2018-03-23T05:22:04.698Z,2.8
2018-03-23T05:23:14.400Z,2.7
2018-03-23T05:24:24.365Z,2.76
2018-03-23T05:25:34.335Z,2.73
2018-03-23T05:26:44.301Z,2.73
2018-03-23T05:27:53.479Z,2.69
2018-03-23T05:29:03.437Z,2.69
2018-03-23T05:30:13.421Z,2.7
2018-03-23T05:31:23.372Z,2.73
2018-03-23T05:32:32.549Z,2.8
2018-03-23T05:33:42.528Z,2.77
2018-03-23T05:34:52.229Z,2.69
2018-03-23T05:36:01.675Z,2.69
2018-03-23T05:37:11.398Z,2.73
2018-03-23T05:38:21.368Z,2.72
2018-03-23T05:39:31.101Z,2.73
2018-03-23T05:40:40.346Z,2.79
2018-03-23T05:41:50.439Z,2.73
2018-03-23T05:43:00.138Z,2.7
2018-03-23T05:44:09.835Z,2.7
2018-03-23T05:45:19.544Z,2.7
2018-03-23T05:46:29.603Z,2.65
2018-03-23T05:47:39.563Z,2.7
2018-03-23T05:48:49.002Z,2.65
2018-03-23T05:49:58.966Z,2.72
2018-03-23T05:51:08.675Z,2.73
2018-03-23T05:52:18.381Z,2.73
2018-03-23T05:53:28.083Z,2.73
2018-03-23T05:54:37.795Z,2.75
2018-03-23T05:55:47.487Z,2.68
2018-03-23T05:56:57.190Z,2.65
2018-03-23T05:58:06.637Z,2.72
2018-03-23T05:59:16.614Z,2.73
2018-03-23T06:00:26.311Z,2.68
2018-03-23T06:01:36.025Z,2.75
2018-03-23T06:02:45.990Z,2.79
2018-03-23T06:03:55.695Z,2.79
2018-03-23T06:05:05.155Z,2.77
2018-03-23T06:06:14.600Z,2.8
2018-03-23T06:07:24.578Z,2.87
2018-03-23T06:08:34.298Z,2.82
2018-03-23T06:09:43.485Z,2.76
2018-03-23T06:10:52.930Z,2.82
2018-03-23T06:12:02.908Z,2.85
2018-03-23T06:13:12.857Z,2.83
2018-03-23T06:14:22.562Z,2.8
2018-03-23T06:15:32.264Z,2.76
2018-03-23T06:16:42.226Z,2.82
2018-03-23T06:17:51.992Z,2.83
2018-03-23T06:19:01.948Z,2.8
2018-03-23T06:20:11.641Z,2.82
2018-03-23T06:21:20.825Z,2.83
2018-03-23T06:22:30.531Z,2.87
2018-03-23T06:23:40.245Z,2.9
2018-03-23T06:24:49.686Z,2.93
2018-03-23T06:25:59.389Z,2.93
2018-03-23T06:27:09.359Z,3
2018-03-23T06:28:18.857Z,2.95
2018-03-23T06:29:28.573Z,2.97
2018-03-23T06:30:38.546Z,2.97
2018-03-23T06:31:48.268Z,3.01
2018-03-23T06:32:57.983Z,2.93
2018-03-23T06:34:07.723Z,2.93
2018-03-23T06:35:17.469Z,3
2018-03-23T06:36:27.432Z,2.91
2018-03-23T06:37:37.128Z,2.98
2018-03-23T06:38:47.099Z,2.93
2018-03-23T06:39:57.066Z,2.94
2018-03-23T06:41:06.787Z,2.93
2018-03-23T06:42:16.244Z,2.9
2018-03-23T06:43:25.961Z,2.97
2018-03-23T06:44:35.945Z,2.95
2018-03-23T06:45:45.714Z,2.94
2018-03-23T06:46:55.408Z,2.94
2018-03-23T06:48:04.587Z,2.97
2018-03-23T06:49:14.639Z,2.93
2018-03-23T06:50:24.357Z,3.01
2018-03-23T06:51:34.342Z,2.98
2018-03-23T06:52:43.790Z,2.91
2018-03-23T06:53:53.513Z,3.03
2018-03-23T06:55:03.483Z,3.03
2018-03-23T06:56:13.458Z,3.05
2018-03-23T06:57:23.164Z,3.09
2018-03-23T06:58:32.865Z,3.11
2018-03-23T06:59:42.353Z,3.09
2018-03-23T07:00:52.329Z,3.12
2018-03-23T07:02:02.302Z,3.08
2018-03-23T07:03:12.284Z,3.09
2018-03-23T07:04:22.292Z,3.15
2018-03-23T07:05:31.999Z,3.22
2018-03-23T07:06:41.496Z,3.13
2018-03-23T07:07:50.688Z,3.24
2018-03-23T07:09:00.391Z,3.13
2018-03-23T07:10:10.127Z,3.27
2018-03-23T07:11:20.161Z,3.16
2018-03-23T07:12:30.148Z,3.11
2018-03-23T07:13:39.891Z,3.16
2018-03-23T07:14:49.608Z,3.21
2018-03-23T07:15:59.604Z,3.34
2018-03-23T07:17:09.333Z,3.31
2018-03-23T07:18:19.583Z,3.48
2018-03-23T07:19:29.590Z,3.45
2018-03-23T07:20:39.320Z,3.49
2018-03-23T07:21:49.295Z,3.46
2018-03-23T07:22:58.774Z,3.58
2018-03-23T07:24:08.506Z,3.58
2018-03-23T07:25:18.493Z,3.63
2018-03-23T07:26:28.474Z,3.66
2018-03-23T07:27:38.447Z,3.73
2018-03-23T07:28:48.453Z,3.71
2018-03-23T07:29:58.443Z,3.71
2018-03-23T07:31:08.449Z,3.86
2018-03-23T07:32:18.426Z,3.84
2018-03-23T07:33:28.401Z,3.76
2018-03-23T07:34:38.410Z,3.78
2018-03-23T07:35:48.420Z,3.76
2018-03-23T07:36:58.153Z,3.82
2018-03-23T07:38:07.880Z,3.89
2018-03-23T07:39:17.890Z,3.82
2018-03-23T07:40:27.860Z,3.84
2018-03-23T07:41:37.580Z,3.82
2018-03-23T07:42:47.572Z,3.84
2018-03-23T07:43:57.298Z,3.82
2018-03-23T07:45:06.773Z,3.86
2018-03-23T07:46:16.753Z,3.85
2018-03-23T07:47:26.739Z,3.88
2018-03-23T07:48:36.458Z,3.92
2018-03-23T07:49:46.451Z,4.09
2018-03-23T07:50:56.160Z,4.02
2018-03-23T07:52:06.151Z,4.03
2018-03-23T07:53:15.869Z,4.09
2018-03-23T07:54:25.620Z,4.07
2018-03-23T07:55:35.583Z,4.03
2018-03-23T07:56:45.112Z,4.21
2018-03-23T07:57:54.850Z,4.22
2018-03-23T07:59:04.559Z,4.24
2018-03-23T08:00:14.273Z,4.04
2018-03-23T08:01:23.992Z,3.91
2018-03-23T08:02:33.979Z,3.92
2018-03-23T08:03:43.708Z,4.02
2018-03-23T08:04:53.719Z,3.99
2018-03-23T08:06:03.452Z,4
2018-03-23T08:07:12.661Z,3.95
2018-03-23T08:08:22.403Z,4
2018-03-23T08:09:32.132Z,3.88
2018-03-23T08:10:42.106Z,3.92
2018-03-23T08:11:51.821Z,3.99
2018-03-23T08:13:01.805Z,3.92
2018-03-23T08:14:11.544Z,3.96
2018-03-23T08:15:21.270Z,4.04
2018-03-23T08:16:31.292Z,4.12
2018-03-23T08:17:41.279Z,4.03
2018-03-23T08:18:51.236Z,4.04
2018-03-23T08:20:01.219Z,4.21
2018-03-23T08:21:11.225Z,4.13
2018-03-23T08:22:20.953Z,4.25
2018-03-23T08:23:30.409Z,4.21
2018-03-23T08:24:39.339Z,4.25
2018-03-23T08:25:49.319Z,4.25
2018-03-23T08:26:59.292Z,4.02
2018-03-23T08:28:09.265Z,4.02
2018-03-23T08:29:19.236Z,3.99
2018-03-23T08:30:28.693Z,4.02
2018-03-23T08:31:38.658Z,3.99
2018-03-23T08:32:48.639Z,4.12
2018-03-23T08:33:58.618Z,4.12
2018-03-23T08:35:08.614Z,4.1
2018-03-23T08:36:18.585Z,4.12
2018-03-23T08:37:28.604Z,4.14
2018-03-23T08:38:38.578Z,4.18
2018-03-23T08:39:48.552Z,4.18
2018-03-23T08:40:58.249Z,4.18
2018-03-23T08:42:07.960Z,4.18
2018-03-23T08:43:17.939Z,4.25
2018-03-23T08:44:28.076Z,4.22
2018-03-23T08:45:38.122Z,4.18
2018-03-23T08:46:48.114Z,4.07
2018-03-23T08:47:57.844Z,4.07
2018-03-23T08:49:07.881Z,4.09
2018-03-23T08:50:17.619Z,4.06
2018-03-23T08:51:27.330Z,4.02
2018-03-23T08:52:37.326Z,4.21
2018-03-23T08:53:47.303Z,4.13
2018-03-23T08:54:56.521Z,4.16
2018-03-23T08:56:06.268Z,4.07
2018-03-23T08:57:15.988Z,4.16
2018-03-23T08:58:25.775Z,4.18
2018-03-23T08:59:34.964Z,4.18
2018-03-23T09:00:44.693Z,4.16
2018-03-23T09:01:54.413Z,4.25
2018-03-23T09:03:04.196Z,4.25
2018-03-23T09:04:13.916Z,4.25
2018-03-23T09:05:23.367Z,4.31
2018-03-23T09:06:33.340Z,4.31
2018-03-23T09:07:43.347Z,4.36
2018-03-23T09:08:53.308Z,4.24
2018-03-23T09:10:02.760Z,4.18
2018-03-23T09:11:12.614Z,4.09
2018-03-23T09:12:22.464Z,4.06
2018-03-23T09:13:32.288Z,4.12
2018-03-23T09:14:41.756Z,4
2018-03-23T09:15:51.717Z,4.2
2018-03-23T09:17:01.700Z,4.21
2018-03-23T09:18:11.668Z,4.21
2018-03-23T09:19:21.401Z,4.14
2018-03-23T09:20:31.420Z,4.06
2018-03-23T09:21:41.246Z,3.96
2018-03-23T09:22:50.991Z,3.99
2018-03-23T09:24:00.706Z,3.96
2018-03-23T09:25:10.672Z,4
2018-03-23T09:26:20.723Z,4.04
2018-03-23T09:27:30.733Z,4.04
2018-03-23T09:28:40.459Z,3.99
2018-03-23T09:29:50.451Z,4
2018-03-23T09:30:59.663Z,4.02
2018-03-23T09:32:09.115Z,3.96
2018-03-23T09:33:18.829Z,3.95
2018-03-23T09:34:28.590Z,3.96
2018-03-23T09:35:38.295Z,3.82
2018-03-23T09:36:48.521Z,3.89
2018-03-23T09:37:57.992Z,3.82
2018-03-23T09:39:07.189Z,3.94
2018-03-23T09:40:17.200Z,3.89
2018-03-23T09:41:27.158Z,4
2018-03-23T09:42:36.876Z,3.96
2018-03-23T09:43:46.908Z,4.03
2018-03-23T09:44:56.641Z,4
2018-03-23T09:46:06.608Z,3.99
2018-03-23T09:47:16.572Z,4.04
2018-03-23T09:48:26.043Z,4.12
2018-03-23T09:49:35.751Z,4.21
2018-03-23T09:50:45.477Z,4.24
2018-03-23T09:51:54.939Z,4.27
2018-03-23T09:53:04.393Z,4.18
2018-03-23T09:54:14.108Z,4.18
2018-03-23T09:55:23.289Z,4.24
2018-03-23T09:56:33.253Z,4.39
2018-03-23T09:57:42.706Z,4.36
2018-03-23T09:58:52.428Z,4.32
2018-03-23T10:00:02.136Z,4.39
2018-03-23T10:01:12.098Z,4.34
2018-03-23T10:02:21.811Z,4.38
2018-03-23T10:03:31.986Z,4.42
2018-03-23T10:04:43.527Z,4.43
2018-03-23T10:05:53.264Z,4.4
2018-03-23T10:07:02.194Z,4.43
2018-03-23T10:08:11.678Z,4.43
2018-03-23T10:09:21.436Z,4.36
2018-03-23T10:10:31.409Z,4.25
2018-03-23T10:11:41.131Z,4.27
2018-03-23T10:12:51.173Z,4.21
2018-03-23T10:14:01.152Z,4.28
2018-03-23T10:15:11.141Z,4.28
2018-03-23T10:16:21.135Z,4.25
2018-03-23T10:17:30.606Z,4.24
2018-03-23T10:18:40.570Z,4.22
2018-03-23T10:19:50.296Z,4.28
2018-03-23T10:21:00.863Z,4.27
2018-03-23T10:22:10.617Z,4.22
2018-03-23T10:23:20.336Z,4.27
2018-03-23T10:24:30.312Z,4.18
2018-03-23T10:25:40.295Z,4.22
2018-03-23T10:26:50.264Z,4.16
2018-03-23T10:28:00.021Z,4.24
2018-03-23T10:29:10.146Z,4.25
2018-03-23T10:30:20.228Z,4.28
2018-03-23T10:31:30.223Z,4.36
2018-03-23T10:32:40.200Z,4.34
2018-03-23T10:33:49.936Z,4.4
2018-03-23T10:34:59.133Z,4.3
2018-03-23T10:36:08.583Z,4.56
2018-03-23T10:37:18.275Z,4.58
2018-03-23T10:38:27.999Z,4.64
2018-03-23T10:39:37.462Z,4.67
2018-03-23T10:40:46.644Z,4.7
2018-03-23T10:41:56.625Z,4.71
2018-03-23T10:43:06.664Z,4.75
2018-03-23T10:44:16.640Z,4.7
2018-03-23T10:45:26.642Z,4.67
2018-03-23T10:46:36.637Z,4.7
2018-03-23T10:47:46.672Z,4.86
2018-03-23T10:48:56.672Z,4.74
2018-03-23T10:50:06.406Z,4.64
2018-03-23T10:51:16.408Z,4.78
2018-03-23T10:52:26.409Z,4.67
2018-03-23T10:53:36.526Z,4.83
2018-03-23T10:54:46.518Z,4.87
2018-03-23T10:55:56.494Z,5.02
2018-03-23T10:57:05.435Z,4.82
2018-03-23T10:58:15.138Z,4.86
2018-03-23T10:59:25.111Z,4.71
2018-03-23T11:00:34.982Z,4.74
2018-03-23T11:01:44.473Z,4.7
2018-03-23T11:02:54.198Z,4.67
2018-03-23T11:04:03.924Z,4.67
2018-03-23T11:05:13.650Z,4.7
2018-03-23T11:06:23.101Z,4.74
2018-03-23T11:07:33.063Z,4.7
2018-03-23T11:08:42.776Z,4.71
2018-03-23T11:09:51.957Z,4.74
2018-03-23T11:11:01.427Z,4.68
2018-03-23T11:12:11.319Z,4.79
2018-03-23T11:13:21.058Z,4.74
2018-03-23T11:14:30.773Z,4.84
2018-03-23T11:15:40.765Z,4.76
2018-03-23T11:16:50.744Z,4.9
2018-03-23T11:18:00.874Z,4.89
2018-03-23T11:19:10.850Z,4.87
2018-03-23T11:20:20.830Z,4.86
2018-03-23T11:21:30.823Z,4.84
2018-03-23T11:22:40.806Z,4.92
2018-03-23T11:23:50.258Z,4.98
2018-03-23T11:25:00.208Z,5.01
2018-03-23T11:26:09.945Z,5.01
2018-03-23T11:27:19.659Z,4.94
2018-03-23T11:28:29.377Z,5
2018-03-23T11:29:39.102Z,5.01
2018-03-23T11:30:48.829Z,5.04
2018-03-23T11:31:58.812Z,4.97
2018-03-23T11:33:08.538Z,5
2018-03-23T11:34:18.304Z,5.08
2018-03-23T11:35:27.747Z,5.2
2018-03-23T11:36:37.451Z,5.25
2018-03-23T11:37:47.425Z,5.18
2018-03-23T11:38:57.385Z,5.25
2018-03-23T11:40:07.379Z,5.2
2018-03-23T11:41:17.367Z,5.25
2018-03-23T11:42:27.356Z,5.18
2018-03-23T11:43:37.352Z,5.13
2018-03-23T11:44:47.461Z,5.12
2018-03-23T11:45:57.539Z,5.23
2018-03-23T11:47:07.512Z,5.33
2018-03-23T11:48:17.481Z,5.37
2018-03-23T11:49:27.238Z,5.41
2018-03-23T11:50:37.201Z,5.41
2018-03-23T11:51:47.351Z,5.36
2018-03-23T11:52:57.328Z,5.46
2018-03-23T11:54:07.042Z,5.4
2018-03-23T11:55:16.758Z,5.4
2018-03-23T11:56:26.853Z,5.37
2018-03-23T11:57:36.936Z,5.47
2018-03-23T11:58:46.914Z,5.4
2018-03-23T11:59:56.618Z,5.37
2018-03-23T12:01:06.596Z,5.29
2018-03-23T12:02:16.563Z,5.23
2018-03-23T12:03:26.270Z,5.34
2018-03-23T12:04:36.245Z,5.23
2018-03-23T12:05:46.243Z,5.31
2018-03-23T12:06:56.295Z,5.29
2018-03-23T12:08:06.004Z,5.33
2018-03-23T12:09:16.232Z,5.22
2018-03-23T12:10:26.216Z,5.41
2018-03-23T12:11:35.917Z,5.46
2018-03-23T12:12:45.630Z,5.41
2018-03-23T12:13:54.805Z,5.49
2018-03-23T12:15:04.792Z,5.47
2018-03-23T12:16:14.793Z,5.44
2018-03-23T12:17:24.765Z,5.54
2018-03-23T12:18:34.739Z,5.58
2018-03-23T12:19:44.465Z,5.59
2018-03-23T12:20:54.175Z,5.7
2018-03-23T12:22:03.892Z,5.76
2018-03-23T12:23:13.891Z,5.72
2018-03-23T12:24:23.894Z,5.83
2018-03-23T12:25:33.606Z,5.94
2018-03-23T12:26:43.318Z,6.02
2018-03-23T12:27:53.307Z,6.25
2018-03-23T12:29:03.311Z,6.32
2018-03-23T12:30:13.289Z,6.2
2018-03-23T12:31:23.524Z,6.13
2018-03-23T12:32:33.504Z,6.32
2018-03-23T12:33:43.537Z,6.34
2018-03-23T12:34:53.416Z,6.5
2018-03-23T12:36:02.899Z,6.35
2018-03-23T12:37:12.887Z,6.36
2018-03-23T12:38:22.591Z,6.29
2018-03-23T12:39:32.559Z,6.34
2018-03-23T12:40:42.266Z,6.29
2018-03-23T12:41:52.229Z,6.17
2018-03-23T12:43:02.453Z,5.99
2018-03-23T12:44:12.468Z,6.1
2018-03-23T12:45:22.442Z,6.09
2018-03-23T12:46:32.473Z,6.17
2018-03-23T12:47:42.440Z,6.07
2018-03-23T12:48:52.473Z,5.98
2018-03-23T12:50:02.472Z,5.95
2018-03-23T12:51:12.566Z,5.84
2018-03-23T12:52:22.557Z,5.76
2018-03-23T12:53:32.524Z,5.64
2018-03-23T12:54:42.506Z,5.74
2018-03-23T12:55:52.501Z,5.73
2018-03-23T12:57:02.220Z,5.67
2018-03-23T12:58:12.190Z,5.76
2018-03-23T12:59:21.924Z,5.81
2018-03-23T13:00:31.645Z,5.83
2018-03-23T13:01:41.627Z,5.84
2018-03-23T13:02:51.621Z,5.94
2018-03-23T13:04:01.324Z,5.94
2018-03-23T13:05:11.044Z,5.94
2018-03-23T13:06:21.032Z,5.9
2018-03-23T13:07:30.756Z,5.95
2018-03-23T13:08:40.473Z,5.99
2018-03-23T13:09:50.442Z,5.84
2018-03-23T13:11:00.487Z,5.9
2018-03-23T13:12:10.198Z,5.84
2018-03-23T13:13:19.923Z,6.06
2018-03-23T13:14:29.671Z,6.09
2018-03-23T13:15:39.927Z,6.05
2018-03-23T13:16:49.959Z,6.1
2018-03-23T13:17:59.729Z,6.06
2018-03-23T13:19:09.727Z,6.07
2018-03-23T13:20:19.198Z,5.9
2018-03-23T13:21:29.191Z,5.84
2018-03-23T13:22:39.159Z,5.98
2018-03-23T13:23:49.426Z,5.98
2018-03-23T13:24:58.891Z,5.81
2018-03-23T13:26:08.953Z,5.77
2018-03-23T13:27:19.241Z,5.77
2018-03-23T13:28:28.701Z,5.88
2018-03-23T13:29:38.690Z,5.92
2018-03-23T13:30:48.404Z,6.02
2018-03-23T13:31:57.891Z,5.87
2018-03-23T13:33:07.696Z,5.9
2018-03-23T13:34:17.426Z,5.98
2018-03-23T13:35:27.447Z,6.09
2018-03-23T13:36:37.426Z,6.17
2018-03-23T13:37:47.415Z,6.2
2018-03-23T13:38:56.865Z,6.13
2018-03-23T13:40:06.853Z,6.07
2018-03-23T13:41:16.061Z,6.02
2018-03-23T13:42:25.521Z,5.94
2018-03-23T13:43:35.244Z,5.94
2018-03-23T13:44:45.343Z,5.81
2018-03-23T13:45:55.068Z,5.83
2018-03-23T13:47:04.253Z,5.7
2018-03-23T13:48:13.719Z,5.52
2018-03-23T13:49:23.488Z,5.33
2018-03-23T13:50:32.960Z,5.22
2018-03-23T13:51:42.888Z,5.07
2018-03-23T13:52:52.889Z,5.18
2018-03-23T13:54:02.874Z,5.15
2018-03-23T13:55:12.605Z,5.2
2018-03-23T13:56:22.612Z,5.2
2018-03-23T13:57:32.306Z,5.29
2018-03-23T13:58:41.506Z,5.16
2018-03-23T13:59:51.234Z,5.16
2018-03-23T14:01:00.692Z,5.16
2018-03-23T14:02:10.163Z,5.07
2018-03-23T14:03:19.875Z,5.13
2018-03-23T14:04:29.597Z,5.02
2018-03-23T14:05:39.056Z,5.19
2018-03-23T14:06:49.026Z,5.15
2018-03-23T14:07:58.499Z,5.18
2018-03-23T14:09:08.223Z,5.25
2018-03-23T14:10:17.938Z,5.22
2018-03-23T14:11:27.644Z,5.12
2018-03-23T14:12:37.403Z,5.16
2018-03-23T14:13:47.106Z,5.19
2018-03-23T14:14:56.595Z,5.12
2018-03-23T14:16:05.790Z,5.16
2018-03-23T14:17:15.270Z,5.25
2018-03-23T14:18:24.988Z,5.31
2018-03-23T14:19:34.697Z,5.38
2018-03-23T14:20:44.678Z,5.44
2018-03-23T14:21:54.642Z,5.37
2018-03-23T14:23:04.352Z,5.38
2018-03-23T14:24:14.067Z,5.26
2018-03-23T14:25:24.043Z,5.28
2018-03-23T14:26:33.789Z,5.31
2018-03-23T14:27:43.756Z,5.22
2018-03-23T14:28:54.028Z,5.15
2018-03-23T14:30:03.916Z,5
2018-03-23T14:31:13.902Z,4.83
2018-03-23T14:32:23.874Z,4.71
2018-03-23T14:33:33.848Z,4.74
2018-03-23T14:34:43.552Z,4.61
2018-03-23T14:35:53.261Z,4.53
2018-03-23T14:37:02.442Z,4.5
2018-03-23T14:38:12.144Z,4.61
2018-03-23T14:39:21.596Z,4.71
2018-03-23T14:40:31.030Z,4.66
2018-03-23T14:41:41.016Z,4.78
2018-03-23T14:42:50.470Z,4.74
2018-03-23T14:44:00.441Z,4.87
2018-03-23T14:45:09.909Z,4.84
2018-03-23T14:46:19.378Z,4.98
2018-03-23T14:47:29.144Z,4.94
2018-03-23T14:48:38.595Z,4.94
2018-03-23T14:49:48.567Z,5.01
2018-03-23T14:50:58.295Z,5.19
2018-03-23T14:52:08.027Z,5.23
2018-03-23T14:53:17.474Z,5.26
2018-03-23T14:54:26.913Z,5.26
2018-03-23T14:55:36.624Z,5.36
2018-03-23T14:56:46.342Z,5.38
2018-03-23T14:57:56.060Z,5.59
2018-03-23T14:59:06.020Z,5.65
2018-03-23T15:00:15.617Z,5.8
2018-03-23T15:01:25.332Z,5.8
2018-03-23T15:02:35.302Z,5.94
2018-03-23T15:03:45.272Z,5.99
2018-03-23T15:04:55.297Z,6.13
2018-03-23T15:06:05.328Z,6.16
2018-03-23T15:07:15.313Z,6.2
2018-03-23T15:08:25.046Z,6.17
2018-03-23T15:09:34.766Z,6.05
2018-03-23T15:10:44.736Z,6.1
2018-03-23T15:11:54.434Z,6.02
2018-03-23T15:13:04.438Z,5.98
2018-03-23T15:14:14.439Z,6.01
2018-03-23T15:15:24.423Z,6.01
2018-03-23T15:16:34.399Z,6.12
2018-03-23T15:17:44.366Z,5.99
2018-03-23T15:18:54.384Z,5.91
2018-03-23T15:20:04.381Z,5.88
2018-03-23T15:21:14.368Z,5.87
2018-03-23T15:22:24.119Z,5.76
2018-03-23T15:23:34.077Z,5.76
2018-03-23T15:24:44.049Z,5.76
2018-03-23T15:25:53.511Z,5.64
2018-03-23T15:27:03.249Z,5.72
2018-03-23T15:28:12.716Z,5.73
2018-03-23T15:29:22.185Z,5.67
2018-03-23T15:30:32.173Z,5.7
2018-03-23T15:31:41.916Z,5.72
2018-03-23T15:32:51.955Z,5.67